Time;durP1;ratioP1;P1;durP2;ratioP2;P2;SDS_P1;SDS_P2;PMS_P1;PMS_P2;Temp;Humidity;BMP_temperature;BMP_pressure;BME280_temperature;BME280_humidity;BME280_pressure;Samples;Min_cycle;Max_cycle;Signal;HPM_P1;HPM_P2
2022/09/07 00:02:06;;;;;;;12.45;6.40;;;;;;;;;;5083453;28;20022;-91
2022/09/07 00:04:32;;;;;;;12.15;6.65;;;;;;;;;;5098802;28;20620;-91
2022/09/07 00:06:58;;;;;;;14.18;6.93;;;;;;;;;;5094260;28;20112;-91
2022/09/07 00:09:24;;;;;;;11.98;6.53;;;;;;;;;;5092629;28;20027;-91
2022/09/07 00:11:50;;;;;;;11.48;6.60;;;;;;;;;;5079440;28;20036;-92
2022/09/07 00:14:17;;;;;;;10.25;6.05;;;;;;;;;;5083168;28;20093;-91
2022/09/07 00:16:43;;;;;;;13.32;7.00;;;;;;;;;;5079715;28;20028;-91
2022/09/07 00:19:09;;;;;;;13.77;7.35;;;;;;;;;;5086112;28;20017;-92
2022/09/07 00:21:36;;;;;;;9.15;7.00;;;;;;;;;;5090772;28;20067;-90
2022/09/07 00:24:02;;;;;;;13.52;7.60;;;;;;;;;;5081678;28;20020;-91
2022/09/07 00:26:31;;;;;;;17.08;7.45;;;;;;;;;;5078620;28;20073;-91
2022/09/07 00:28:58;;;;;;;12.60;7.30;;;;;;;;;;5084526;28;20031;-91
2022/09/07 00:31:24;;;;;;;16.92;6.95;;;;;;;;;;5085060;28;20055;-91
2022/09/07 00:33:51;;;;;;;13.10;7.10;;;;;;;;;;5076409;28;20474;-91
2022/09/07 00:36:19;;;;;;;11.45;6.47;;;;;;;;;;5087726;28;20016;-90
2022/09/07 00:38:45;;;;;;;16.10;6.93;;;;;;;;;;5088956;28;20031;-90
2022/09/07 00:41:11;;;;;;;14.35;7.25;;;;;;;;;;5083640;28;20460;-91
2022/09/07 00:43:41;;;;;;;10.57;6.78;;;;;;;;;;5094375;28;20111;-91
2022/09/07 00:46:18;;;;;;;13.45;7.15;;;;;;;;;;5086455;28;20087;-90
2022/09/07 00:48:51;;;;;;;15.80;7.47;;;;;;;;;;5098723;28;20058;-90
2022/09/07 00:51:21;;;;;;;15.07;7.05;;;;;;;;;;5079900;28;20035;-90
2022/09/07 00:53:54;;;;;;;10.18;6.95;;;;;;;;;;5096654;28;20485;-90
2022/09/07 00:56:22;;;;;;;10.73;7.38;;;;;;;;;;5082288;28;20038;-91
2022/09/07 00:58:48;;;;;;;13.13;7.00;;;;;;;;;;5093094;28;20016;-90
2022/09/07 01:01:15;;;;;;;12.63;7.25;;;;;;;;;;5075739;28;20492;-91
2022/09/07 01:03:44;;;;;;;11.48;7.30;;;;;;;;;;5094786;28;20024;-91
2022/09/07 01:06:16;;;;;;;14.75;7.82;;;;;;;;;;5079136;28;20071;-91
2022/09/07 01:08:42;;;;;;;14.57;7.75;;;;;;;;;;5110449;28;20024;-91
2022/09/07 01:11:09;;;;;;;17.90;7.45;;;;;;;;;;5088426;28;20058;-90
2022/09/07 01:13:38;;;;;;;10.35;7.53;;;;;;;;;;5091325;28;20051;-91
2022/09/07 01:16:10;;;;;;;10.73;7.38;;;;;;;;;;5086893;28;20111;-91
2022/09/07 01:18:51;;;;;;;14.70;6.82;;;;;;;;;;5105542;28;20101;-91
2022/09/07 01:21:25;;;;;;;15.90;7.22;;;;;;;;;;5084187;28;20489;-91
2022/09/07 01:24:02;;;;;;;17.50;7.07;;;;;;;;;;5083724;28;20094;-90
2022/09/07 01:26:31;;;;;;;14.20;6.97;;;;;;;;;;5105919;28;20031;-90
2022/09/07 01:29:17;;;;;;;11.82;7.75;;;;;;;;;;5095019;28;20039;-91
2022/09/07 01:32:04;;;;;;;8.95;6.65;;;;;;;;;;5035670;28;20537;-91
2022/09/07 01:34:32;;;;;;;14.50;6.90;;;;;;;;;;5077980;28;20032;-90
2022/09/07 01:37:06;;;;;;;12.45;6.38;;;;;;;;;;5076652;28;20020;-90
2022/09/07 01:39:38;;;;;;;10.38;5.80;;;;;;;;;;5088287;28;20111;-90
2022/09/07 01:42:08;;;;;;;14.57;6.30;;;;;;;;;;5077804;28;20490;-90
2022/09/07 01:44:40;;;;;;;10.10;6.07;;;;;;;;;;5077416;28;20021;-90
2022/09/07 01:47:21;;;;;;;11.85;6.32;;;;;;;;;;5088345;27;20129;-90
2022/09/07 01:50:06;;;;;;;10.50;5.93;;;;;;;;;;5084857;28;20062;-90
2022/09/07 01:52:46;;;;;;;10.13;5.75;;;;;;;;;;5084591;28;20034;-90
2022/09/07 01:55:21;;;;;;;13.35;5.78;;;;;;;;;;5092445;28;20169;-90
2022/09/07 01:57:55;;;;;;;10.88;5.38;;;;;;;;;;5075994;28;20032;-90
2022/09/07 02:00:22;;;;;;;10.55;5.72;;;;;;;;;;5076287;28;20024;-91
2022/09/07 02:02:55;;;;;;;9.52;5.65;;;;;;;;;;5096798;28;20020;-90
2022/09/07 02:05:24;;;;;;;8.60;5.18;;;;;;;;;;5077898;28;20433;-91
2022/09/07 02:07:53;;;;;;;11.13;5.40;;;;;;;;;;5106166;28;20028;-91
2022/09/07 02:10:25;;;;;;;11.00;5.95;;;;;;;;;;5076373;28;20106;-91
2022/09/07 02:12:54;;;;;;;9.43;5.47;;;;;;;;;;5076175;28;20126;-91
2022/09/07 02:15:27;;;;;;;8.27;5.72;;;;;;;;;;5081981;28;20024;-90
2022/09/07 02:17:57;;;;;;;10.07;5.88;;;;;;;;;;5115253;27;20015;-90
2022/09/07 02:20:30;;;;;;;10.70;5.57;;;;;;;;;;5082466;28;20791;-90
2022/09/07 02:22:59;;;;;;;9.73;6.03;;;;;;;;;;5090130;27;20012;-90
2022/09/07 02:25:28;;;;;;;11.32;5.35;;;;;;;;;;5109440;28;20035;-91
2022/09/07 02:28:00;;;;;;;11.90;5.53;;;;;;;;;;5089136;28;20030;-91
2022/09/07 02:30:27;;;;;;;10.27;5.05;;;;;;;;;;5085350;28;20110;-91
2022/09/07 02:32:55;;;;;;;8.43;5.30;;;;;;;;;;5109218;27;20452;-91
2022/09/07 02:35:21;;;;;;;9.40;5.38;;;;;;;;;;5094903;28;20015;-90
2022/09/07 02:37:48;;;;;;;11.57;5.88;;;;;;;;;;5086252;28;20055;-90
2022/09/07 02:40:14;;;;;;;13.60;5.63;;;;;;;;;;5088465;28;20024;-90
2022/09/07 02:42:41;;;;;;;10.40;5.53;;;;;;;;;;5108130;28;20020;-90
2022/09/07 02:45:11;;;;;;;8.60;5.15;;;;;;;;;;5085667;28;20044;-91
2022/09/07 02:47:41;;;;;;;8.18;5.43;;;;;;;;;;5091664;28;20019;-90
2022/09/07 02:50:19;;;;;;;10.68;5.57;;;;;;;;;;5094708;28;20040;-91
2022/09/07 02:53:08;;;;;;;8.50;5.47;;;;;;;;;;5089079;28;20039;-90
2022/09/07 02:55:34;;;;;;;9.00;5.10;;;;;;;;;;5080998;28;20024;-90
2022/09/07 02:58:19;;;;;;;8.73;5.50;;;;;;;;;;5093876;28;20046;-89
2022/09/07 03:00:58;;;;;;;12.35;5.55;;;;;;;;;;5095475;28;20377;-89
2022/09/07 03:03:27;;;;;;;12.65;5.63;;;;;;;;;;5107797;28;20080;-90
2022/09/07 03:05:59;;;;;;;10.32;5.00;;;;;;;;;;5096839;28;20049;-90
2022/09/07 03:08:28;;;;;;;12.77;5.68;;;;;;;;;;5116395;28;20527;-91
2022/09/07 03:11:03;;;;;;;13.52;5.60;;;;;;;;;;5091015;28;20020;-91
2022/09/07 03:13:30;;;;;;;7.60;4.90;;;;;;;;;;5099859;28;20473;-91
2022/09/07 03:15:59;;;;;;;11.82;5.03;;;;;;;;;;5100084;28;20024;-91
2022/09/07 03:18:30;;;;;;;12.48;5.57;;;;;;;;;;5087350;28;20054;-90
2022/09/07 03:20:56;;;;;;;;;;;;;;;;;;5094921;28;20473;-90
2022/09/07 03:23:23;;;;;;;12.80;5.65;;;;;;;;;;5096968;28;20042;-90
2022/09/07 03:25:49;;;;;;;11.68;5.47;;;;;;;;;;5100835;28;20026;-90
2022/09/07 03:28:15;;;;;;;12.15;6.53;;;;;;;;;;5105419;28;20444;-90
2022/09/07 03:30:48;;;;;;;10.73;5.70;;;;;;;;;;5115106;28;20480;-89
2022/09/07 03:33:15;;;;;;;10.75;5.70;;;;;;;;;;5082902;28;20023;-90
2022/09/07 03:35:45;;;;;;;11.07;6.10;;;;;;;;;;5097475;28;20023;-90
2022/09/07 03:38:11;;;;;;;9.52;5.75;;;;;;;;;;5098586;28;20015;-90
2022/09/07 03:40:37;;;;;;;9.30;5.57;;;;;;;;;;5092108;28;20020;-89
2022/09/07 03:43:04;;;;;;;11.80;5.75;;;;;;;;;;5093460;27;20027;-91
2022/09/07 03:45:30;;;;;;;8.35;5.57;;;;;;;;;;5087185;28;20044;-90
2022/09/07 03:47:56;;;;;;;9.88;5.88;;;;;;;;;;5089837;28;20034;-90
2022/09/07 03:50:22;;;;;;;10.25;5.97;;;;;;;;;;5088305;28;20086;-90
2022/09/07 03:52:48;;;;;;;11.02;5.45;;;;;;;;;;5078585;28;20389;-90
2022/09/07 03:55:15;;;;;;;11.10;5.50;;;;;;;;;;5069947;28;20052;-90
2022/09/07 03:57:42;;;;;;;9.20;5.70;;;;;;;;;;5078088;28;20030;-90
2022/09/07 04:00:09;;;;;;;9.57;4.78;;;;;;;;;;5081862;28;20024;-91
2022/09/07 04:02:39;;;;;;;10.75;5.57;;;;;;;;;;5078107;28;20024;-90
2022/09/07 04:05:06;;;;;;;10.80;4.55;;;;;;;;;;5077730;28;20436;-90
2022/09/07 04:07:32;;;;;;;13.05;5.13;;;;;;;;;;5082158;28;20093;-90
2022/09/07 04:09:58;;;;;;;10.85;4.75;;;;;;;;;;5069968;28;20051;-90
2022/09/07 04:12:27;;;;;;;11.73;4.80;;;;;;;;;;5068911;28;20028;-90
2022/09/07 04:14:53;;;;;;;9.15;4.57;;;;;;;;;;5071716;28;20020;-91
2022/09/07 04:17:19;;;;;;;13.95;4.78;;;;;;;;;;5066337;28;20024;-89
2022/09/07 04:19:46;;;;;;;12.82;5.00;;;;;;;;;;5076637;28;20016;-90
2022/09/07 04:22:12;;;;;;;7.90;4.32;;;;;;;;;;5081146;28;20016;-90
2022/09/07 04:24:38;;;;;;;14.57;5.97;;;;;;;;;;5076948;28;20023;-90
2022/09/07 04:27:04;;;;;;;12.18;5.00;;;;;;;;;;5072196;28;20036;-91
2022/09/07 04:29:30;;;;;;;10.05;4.47;;;;;;;;;;5060085;28;20030;-90
2022/09/07 04:31:57;;;;;;;12.90;5.32;;;;;;;;;;5077702;28;20024;-90
2022/09/07 04:34:23;;;;;;;12.68;4.90;;;;;;;;;;5079190;28;20052;-91
2022/09/07 04:36:49;;;;;;;8.15;4.22;;;;;;;;;;5081657;28;20448;-92
2022/09/07 04:39:15;;;;;;;8.15;4.60;;;;;;;;;;5092218;28;20021;-92
2022/09/07 04:41:41;;;;;;;12.15;4.82;;;;;;;;;;5067413;28;20025;-92
2022/09/07 04:44:09;;;;;;;15.40;5.32;;;;;;;;;;5077461;28;20474;-91
2022/09/07 04:46:36;;;;;;;8.68;4.72;;;;;;;;;;5093251;27;20042;-92
2022/09/07 04:49:04;;;;;;;15.30;4.97;;;;;;;;;;5117032;27;20031;-92
2022/09/07 04:51:31;;;;;;;17.20;5.57;;;;;;;;;;5126393;27;20473;-91
2022/09/07 04:53:59;;;;;;;11.27;5.10;;;;;;;;;;5095961;27;20083;-92
2022/09/07 04:56:27;;;;;;;10.52;4.93;;;;;;;;;;5102528;27;20076;-92
2022/09/07 04:58:53;;;;;;;10.73;5.35;;;;;;;;;;5114071;27;20019;-91
2022/09/07 05:01:21;;;;;;;10.43;5.00;;;;;;;;;;5100979;28;20485;-92
2022/09/07 05:03:48;;;;;;;8.88;4.82;;;;;;;;;;5089479;28;20059;-91
2022/09/07 05:06:14;;;;;;;7.10;4.97;;;;;;;;;;5077457;28;20024;-92
2022/09/07 05:08:49;;;;;;;13.02;5.03;;;;;;;;;;5084625;28;20027;-91
2022/09/07 05:11:16;;;;;;;11.00;5.20;;;;;;;;;;5088767;28;20111;-91
2022/09/07 05:13:42;;;;;;;9.38;5.72;;;;;;;;;;5082217;28;20020;-91
2022/09/07 05:16:12;;;;;;;16.00;5.05;;;;;;;;;;5090643;28;20034;-91
2022/09/07 05:18:41;;;;;;;9.43;5.50;;;;;;;;;;5085195;28;20023;-90
2022/09/07 05:21:12;;;;;;;11.63;5.25;;;;;;;;;;5086778;28;20025;-91
2022/09/07 05:23:38;;;;;;;15.93;5.57;;;;;;;;;;5092599;28;20096;-91
2022/09/07 05:26:07;;;;;;;12.55;5.47;;;;;;;;;;5093161;28;20032;-90
2022/09/07 05:28:36;;;;;;;14.77;5.55;;;;;;;;;;5109064;28;20057;-90
2022/09/07 05:31:10;;;;;;;15.25;5.93;;;;;;;;;;5086389;28;20504;-90
2022/09/07 05:33:39;;;;;;;17.92;5.95;;;;;;;;;;5092281;27;20506;-91
2022/09/07 05:36:06;;;;;;;18.83;5.90;;;;;;;;;;5087447;28;20027;-90
2022/09/07 05:38:36;;;;;;;13.25;6.05;;;;;;;;;;5087564;28;20046;-90
2022/09/07 05:41:19;;;;;;;14.10;5.38;;;;;;;;;;5074986;28;20028;-90
2022/09/07 05:43:46;;;;;;;11.68;5.35;;;;;;;;;;5077683;28;20024;-91
2022/09/07 05:46:12;;;;;;;11.38;4.85;;;;;;;;;;5080620;28;20642;-90
2022/09/07 05:48:42;;;;;;;12.20;5.90;;;;;;;;;;5089243;28;20024;-91
2022/09/07 05:51:08;;;;;;;22.45;6.90;;;;;;;;;;5084392;28;20046;-90
2022/09/07 05:53:38;;;;;;;18.60;7.43;;;;;;;;;;5089235;28;20035;-90
2022/09/07 05:56:05;;;;;;;17.20;7.32;;;;;;;;;;5092787;28;20031;-89
2022/09/07 05:58:32;;;;;;;15.73;7.50;;;;;;;;;;5081985;28;20024;-92
2022/09/07 06:00:59;;;;;;;16.02;7.53;;;;;;;;;;5079848;28;20008;-91
2022/09/07 06:03:27;;;;;;;14.30;7.47;;;;;;;;;;5095948;28;20030;-91
2022/09/07 06:06:07;;;;;;;17.55;7.85;;;;;;;;;;5087691;28;20111;-90
2022/09/07 06:08:34;;;;;;;12.35;6.13;;;;;;;;;;5096644;28;20030;-90
2022/09/07 06:11:07;;;;;;;11.38;7.18;;;;;;;;;;5081244;28;20020;-91
2022/09/07 06:13:37;;;;;;;12.70;6.28;;;;;;;;;;5113380;27;20469;-90
2022/09/07 06:16:06;;;;;;;12.82;5.53;;;;;;;;;;5089536;28;20069;-91
2022/09/07 06:18:33;;;;;;;11.95;6.15;;;;;;;;;;5089435;28;20108;-90
2022/09/07 06:21:10;;;;;;;14.30;6.72;;;;;;;;;;5087869;28;20468;-90
2022/09/07 06:23:37;;;;;;;17.20;7.57;;;;;;;;;;5116436;27;20439;-91
2022/09/07 06:26:06;;;;;;;18.23;7.40;;;;;;;;;;5088847;28;20019;-91
2022/09/07 06:28:36;;;;;;;16.33;7.55;;;;;;;;;;5101592;28;20032;-91
2022/09/07 06:31:04;;;;;;;12.73;6.50;;;;;;;;;;5091124;28;20032;-91
2022/09/07 06:33:30;;;;;;;11.00;5.68;;;;;;;;;;5113495;28;20028;-92
2022/09/07 06:35:58;;;;;;;14.48;6.50;;;;;;;;;;5098165;28;20117;-91
2022/09/07 06:38:24;;;;;;;9.68;6.35;;;;;;;;;;5080585;28;20112;-91
2022/09/07 06:40:50;;;;;;;7.38;5.50;;;;;;;;;;5087735;28;20043;-91
2022/09/07 06:43:17;;;;;;;11.52;6.32;;;;;;;;;;5117821;28;20026;-91
2022/09/07 06:45:43;;;;;;;12.02;6.75;;;;;;;;;;5099182;28;20044;-90
2022/09/07 06:48:09;;;;;;;8.57;6.03;;;;;;;;;;5074679;28;20024;-91
2022/09/07 06:50:36;;;;;;;12.82;5.90;;;;;;;;;;5084547;28;20027;-92
2022/09/07 06:53:02;;;;;;;22.73;6.28;;;;;;;;;;5088796;28;20103;-91
2022/09/07 06:55:28;;;;;;;15.93;6.20;;;;;;;;;;5119995;28;20052;-91
2022/09/07 06:57:54;;;;;;;20.88;7.55;;;;;;;;;;5087020;28;20504;-92
2022/09/07 07:00:20;;;;;;;11.75;5.80;;;;;;;;;;5081898;28;20017;-90
2022/09/07 07:02:47;;;;;;;12.10;5.72;;;;;;;;;;5082869;28;20085;-91
2022/09/07 07:05:13;;;;;;;11.98;5.97;;;;;;;;;;5083394;28;20019;-91
2022/09/07 07:07:39;;;;;;;8.20;4.40;;;;;;;;;;5091203;28;20500;-91
2022/09/07 07:10:10;;;;;;;9.52;5.38;;;;;;;;;;5088082;28;20019;-91
2022/09/07 07:12:36;;;;;;;8.60;5.50;;;;;;;;;;5095410;28;20474;-91
2022/09/07 07:15:03;;;;;;;11.68;5.38;;;;;;;;;;5078016;28;20566;-91
2022/09/07 07:17:31;;;;;;;7.72;5.00;;;;;;;;;;5075075;28;20035;-90
2022/09/07 07:19:58;;;;;;;9.75;5.40;;;;;;;;;;5079875;28;20024;-91
2022/09/07 07:22:24;;;;;;;8.98;5.63;;;;;;;;;;5080895;28;20016;-91
2022/09/07 07:24:50;;;;;;;14.70;5.75;;;;;;;;;;5079019;28;20023;-91
2022/09/07 07:27:16;;;;;;;10.00;5.90;;;;;;;;;;5087565;28;20396;-91
2022/09/07 07:29:42;;;;;;;13.35;5.25;;;;;;;;;;5087435;28;20031;-93
2022/09/07 07:32:09;;;;;;;9.63;5.03;;;;;;;;;;5090282;28;20039;-92
2022/09/07 07:34:37;;;;;;;12.48;5.40;;;;;;;;;;5087231;28;20039;-92
2022/09/07 07:37:03;;;;;;;14.63;5.68;;;;;;;;;;5096192;28;20026;-91
2022/09/07 07:39:29;;;;;;;11.50;5.55;;;;;;;;;;5101357;28;20439;-92
2022/09/07 07:41:58;;;;;;;11.27;5.57;;;;;;;;;;5084461;28;20024;-91
2022/09/07 07:44:24;;;;;;;10.23;5.25;;;;;;;;;;5089050;28;20066;-91
2022/09/07 07:46:51;;;;;;;8.73;5.22;;;;;;;;;;5089297;28;20048;-90
2022/09/07 07:49:17;;;;;;;11.90;5.70;;;;;;;;;;5105631;28;20118;-91
2022/09/07 07:51:43;;;;;;;10.15;5.50;;;;;;;;;;5084236;28;20024;-91
2022/09/07 07:54:09;;;;;;;13.20;5.35;;;;;;;;;;5090514;28;20028;-92
2022/09/07 07:56:38;;;;;;;10.50;5.38;;;;;;;;;;5078395;28;20116;-91
2022/09/07 07:59:04;;;;;;;14.75;5.45;;;;;;;;;;5094948;28;20028;-92
2022/09/07 08:01:30;;;;;;;7.65;4.43;;;;;;;;;;5100804;28;20077;-91
2022/09/07 08:03:56;;;;;;;11.02;5.65;;;;;;;;;;5089822;28;20669;-90
2022/09/07 08:06:22;;;;;;;12.80;6.00;;;;;;;;;;5084365;28;20035;-91
2022/09/07 08:08:49;;;;;;;12.73;5.32;;;;;;;;;;5079044;28;20098;-91
2022/09/07 08:11:17;;;;;;;10.20;5.65;;;;;;;;;;5118554;27;20015;-91
2022/09/07 08:13:46;;;;;;;8.32;5.20;;;;;;;;;;5105793;28;20023;-91
2022/09/07 08:16:13;;;;;;;13.95;5.18;;;;;;;;;;5097765;28;20023;-92
2022/09/07 08:18:40;;;;;;;9.73;4.75;;;;;;;;;;5116542;27;20026;-91
2022/09/07 08:21:07;;;;;;;12.07;4.70;;;;;;;;;;5089726;28;20015;-91
2022/09/07 08:23:34;;;;;;;16.80;5.32;;;;;;;;;;5084694;28;20035;-91
2022/09/07 08:26:01;;;;;;;13.38;5.68;;;;;;;;;;5088533;28;20024;-91
2022/09/07 08:28:28;;;;;;;13.98;5.28;;;;;;;;;;5089928;27;20023;-91
2022/09/07 08:30:54;;;;;;;15.00;5.72;;;;;;;;;;5105235;28;20019;-91
2022/09/07 08:33:21;;;;;;;12.73;5.75;;;;;;;;;;5088781;28;20024;-91
2022/09/07 08:36:06;;;;;;;13.63;5.78;;;;;;;;;;5087423;28;20024;-92
2022/09/07 08:38:33;;;;;;;9.95;5.68;;;;;;;;;;5093904;28;20047;-92
2022/09/07 08:41:01;;;;;;;14.60;5.53;;;;;;;;;;5086974;28;20089;-91
2022/09/07 08:43:36;;;;;;;11.68;5.15;;;;;;;;;;5088944;28;20532;-91
2022/09/07 08:46:05;;;;;;;11.40;5.88;;;;;;;;;;5087410;28;20142;-92
2022/09/07 08:48:33;;;;;;;10.00;4.85;;;;;;;;;;5092826;28;20026;-91
2022/09/07 08:51:02;;;;;;;13.00;5.50;;;;;;;;;;5078104;28;20031;-91
2022/09/07 08:53:31;;;;;;;9.20;5.05;;;;;;;;;;5077441;28;20031;-91
2022/09/07 08:55:59;;;;;;;13.75;4.88;;;;;;;;;;5094539;28;20027;-91
2022/09/07 08:58:31;;;;;;;6.93;4.72;;;;;;;;;;5094471;28;20024;-91
2022/09/07 09:00:58;;;;;;;9.38;5.10;;;;;;;;;;5095849;28;20019;-91
2022/09/07 09:03:28;;;;;;;12.13;5.75;;;;;;;;;;5093036;28;20027;-92
2022/09/07 09:05:59;;;;;;;14.43;5.95;;;;;;;;;;5091336;28;20027;-92
2022/09/07 09:08:36;;;;;;;15.13;5.60;;;;;;;;;;5085090;28;20058;-92
2022/09/07 09:11:08;;;;;;;14.88;5.72;;;;;;;;;;5091955;28;20085;-92
2022/09/07 09:13:50;;;;;;;12.32;5.60;;;;;;;;;;5087867;28;20037;-91
2022/09/07 09:16:29;;;;;;;9.77;4.68;;;;;;;;;;5099706;28;20124;-92
2022/09/07 09:19:05;;;;;;;11.00;5.43;;;;;;;;;;5093387;28;20020;-91
2022/09/07 09:21:34;;;;;;;12.90;6.40;;;;;;;;;;5093726;28;20500;-92
2022/09/07 09:24:07;;;;;;;8.80;5.10;;;;;;;;;;5087958;27;20083;-92
2022/09/07 09:26:36;;;;;;;9.27;5.32;;;;;;;;;;5098126;27;20028;-91
2022/09/07 09:29:16;;;;;;;12.57;5.43;;;;;;;;;;5097411;28;20027;-92
2022/09/07 09:31:43;;;;;;;11.23;5.27;;;;;;;;;;5100111;28;20485;-92
2022/09/07 09:34:19;;;;;;;8.00;5.35;;;;;;;;;;5078723;28;20020;-91
2022/09/07 09:36:47;;;;;;;16.25;5.50;;;;;;;;;;5080078;28;20444;-91
2022/09/07 09:39:48;;;;;;;15.25;5.85;;;;;;;;;;5085750;28;20052;-92
2022/09/07 09:42:16;;;;;;;19.30;5.55;;;;;;;;;;5038737;27;20024;-91
2022/09/07 09:44:42;;;;;;;13.45;4.90;;;;;;;;;;5094862;28;20020;-91
2022/09/07 09:47:31;;;;;;;10.57;4.82;;;;;;;;;;5082058;28;20028;-92
2022/09/07 09:50:00;;;;;;;17.38;5.65;;;;;;;;;;5094914;28;20035;-91
2022/09/07 09:52:28;;;;;;;16.52;5.30;;;;;;;;;;5098005;27;20050;-92
2022/09/07 09:54:55;;;;;;;11.77;5.18;;;;;;;;;;5096550;28;20431;-92
2022/09/07 09:57:40;;;;;;;13.50;5.35;;;;;;;;;;5080570;28;20024;-92
2022/09/07 10:00:14;;;;;;;9.20;5.25;;;;;;;;;;5087500;28;20054;-92
2022/09/07 10:02:40;;;;;;;11.43;5.18;;;;;;;;;;5092671;28;20016;-92
2022/09/07 10:05:25;;;;;;;13.77;5.15;;;;;;;;;;5079952;28;20074;-91
2022/09/07 10:07:52;;;;;;;14.93;4.75;;;;;;;;;;5080481;28;20024;-92
2022/09/07 10:10:18;;;;;;;10.73;5.45;;;;;;;;;;5076721;28;20111;-91
2022/09/07 10:12:48;;;;;;;13.65;4.95;;;;;;;;;;5087747;28;20024;-92
2022/09/07 10:15:25;;;;;;;14.82;5.18;;;;;;;;;;5084426;28;20023;-91
2022/09/07 10:17:51;;;;;;;13.77;4.75;;;;;;;;;;5086072;28;20020;-92
2022/09/07 10:20:18;;;;;;;13.23;4.90;;;;;;;;;;5085417;28;20051;-91
2022/09/07 10:22:51;;;;;;;15.25;5.38;;;;;;;;;;5085921;28;20020;-92
2022/09/07 10:25:27;;;;;;;7.97;4.22;;;;;;;;;;5089253;28;20457;-91
2022/09/07 10:28:01;;;;;;;16.08;5.22;;;;;;;;;;5079421;28;20028;-90
2022/09/07 10:30:30;;;;;;;17.00;5.30;;;;;;;;;;5081219;28;20508;-93
2022/09/07 10:32:57;;;;;;;13.18;5.15;;;;;;;;;;5090316;28;20023;-92
2022/09/07 10:35:42;;;;;;;15.80;4.72;;;;;;;;;;5081194;28;20497;-92
2022/09/07 10:38:16;;;;;;;11.57;5.28;;;;;;;;;;5079038;28;20486;-92
2022/09/07 10:40:44;;;;;;;21.75;4.90;;;;;;;;;;5089801;28;20125;-92
2022/09/07 10:43:22;;;;;;;18.08;5.00;;;;;;;;;;5084404;28;20119;-91
2022/09/07 10:45:50;;;;;;;18.98;5.15;;;;;;;;;;5084715;28;20142;-92
2022/09/07 10:48:18;;;;;;;17.15;4.88;;;;;;;;;;5087113;28;20505;-92
2022/09/07 10:50:50;;;;;;;17.02;4.97;;;;;;;;;;5095088;28;20024;-92
2022/09/07 10:53:39;;;;;;;11.25;4.53;;;;;;;;;;5100869;28;20019;-92
2022/09/07 10:56:17;;;;;;;13.52;4.70;;;;;;;;;;5091570;28;20031;-92
2022/09/07 10:58:53;;;;;;;16.70;4.57;;;;;;;;;;5098009;28;20011;-92
2022/09/07 11:01:25;;;;;;;21.23;5.30;;;;;;;;;;5112686;28;20054;-91
2022/09/07 11:03:57;;;;;;;13.77;4.70;;;;;;;;;;5088786;28;20177;-91
2022/09/07 11:06:39;;;;;;;11.00;4.85;;;;;;;;;;5091925;28;20028;-92
2022/09/07 11:09:10;;;;;;;12.68;4.75;;;;;;;;;;5095596;28;20020;-91
2022/09/07 11:11:39;;;;;;;18.95;5.15;;;;;;;;;;5098114;28;20016;-92
2022/09/07 11:14:11;;;;;;;14.70;4.93;;;;;;;;;;5092363;28;20034;-92
2022/09/07 11:16:41;;;;;;;13.77;5.07;;;;;;;;;;5084387;28;20112;-91
2022/09/07 11:19:13;;;;;;;20.53;4.73;;;;;;;;;;5112990;28;20068;-91
2022/09/07 11:21:42;;;;;;;12.60;4.78;;;;;;;;;;5096057;28;20298;-92
2022/09/07 11:24:13;;;;;;;20.27;4.80;;;;;;;;;;5113376;28;20059;-92
2022/09/07 11:26:39;;;;;;;11.98;5.32;;;;;;;;;;5093950;27;20062;-91
2022/09/07 11:29:21;;;;;;;13.45;5.05;;;;;;;;;;5109212;28;20473;-92
2022/09/07 11:31:48;;;;;;;22.45;5.40;;;;;;;;;;5093691;28;20431;-92
2022/09/07 11:34:22;;;;;;;15.07;5.10;;;;;;;;;;5116546;28;20027;-91
2022/09/07 11:36:51;;;;;;;15.73;5.40;;;;;;;;;;5094738;28;20016;-92
2022/09/07 11:39:21;;;;;;;11.13;4.70;;;;;;;;;;5089538;28;20386;-91
2022/09/07 11:41:52;;;;;;;10.60;4.85;;;;;;;;;;5078965;28;20020;-91
2022/09/07 11:44:28;;;;;;;16.65;5.72;;;;;;;;;;5091955;28;20116;-92
2022/09/07 11:47:01;;;;;;;12.77;4.70;;;;;;;;;;5093436;28;20516;-92
2022/09/07 11:49:29;;;;;;;18.20;5.32;;;;;;;;;;5089432;28;20054;-92
2022/09/07 11:51:57;;;;;;;12.05;4.90;;;;;;;;;;5092384;28;20118;-92
2022/09/07 11:54:43;;;;;;;20.13;4.78;;;;;;;;;;5108750;28;20031;-92
2022/09/07 11:57:18;;;;;;;14.13;5.32;;;;;;;;;;5098963;28;20023;-92
2022/09/07 11:59:49;;;;;;;12.70;4.65;;;;;;;;;;5098758;28;20105;-91
2022/09/07 12:02:21;;;;;;;12.52;5.47;;;;;;;;;;5099653;28;20565;-91
2022/09/07 12:04:54;;;;;;;14.80;4.78;;;;;;;;;;5099038;28;20012;-92
2022/09/07 12:07:32;;;;;;;14.05;4.93;;;;;;;;;;5103103;28;20023;-92
2022/09/07 12:10:21;;;;;;;13.02;4.90;;;;;;;;;;5095815;28;20050;-92
2022/09/07 12:13:02;;;;;;;12.77;5.22;;;;;;;;;;5067385;28;20039;-91
2022/09/07 12:15:48;;;;;;;16.05;4.95;;;;;;;;;;5092626;28;20481;-91
2022/09/07 12:18:15;;;;;;;16.00;5.22;;;;;;;;;;5098158;28;20122;-92
2022/09/07 12:20:45;;;;;;;11.02;5.43;;;;;;;;;;5101716;28;20410;-91
2022/09/07 12:23:31;;;;;;;8.83;4.77;;;;;;;;;;5078770;28;20032;-91
2022/09/07 12:26:19;;;;;;;13.57;5.68;;;;;;;;;;5091427;28;20092;-92
2022/09/07 12:28:45;;;;;;;10.60;5.03;;;;;;;;;;5079041;28;20027;-91
2022/09/07 12:31:11;;;;;;;15.38;5.40;;;;;;;;;;5083375;28;20055;-91
2022/09/07 12:33:39;;;;;;;15.20;5.93;;;;;;;;;;5109864;28;20073;-91
2022/09/07 12:36:24;;;;;;;12.23;5.15;;;;;;;;;;5090452;28;20105;-91
2022/09/07 12:39:04;;;;;;;13.50;5.07;;;;;;;;;;5086779;28;20111;-91
2022/09/07 12:41:44;;;;;;;17.20;5.53;;;;;;;;;;5096723;28;20016;-90
2022/09/07 12:44:21;;;;;;;10.68;4.55;;;;;;;;;;5115065;27;20251;-91
2022/09/07 12:46:52;;;;;;;10.40;4.75;;;;;;;;;;5096715;28;20043;-91
2022/09/07 12:49:39;;;;;;;11.48;5.10;;;;;;;;;;5094482;28;20036;-91
2022/09/07 12:52:28;;;;;;;15.35;5.05;;;;;;;;;;5088497;28;20024;-91
2022/09/07 12:54:57;;;;;;;16.08;5.07;;;;;;;;;;5083793;28;20080;-91
2022/09/07 12:57:23;;;;;;;12.38;5.20;;;;;;;;;;5089640;28;20070;-91
2022/09/07 13:00:13;;;;;;;9.73;4.60;;;;;;;;;;5094022;28;20485;-91
2022/09/07 13:02:42;;;;;;;14.13;4.47;;;;;;;;;;5035693;28;20036;-91
2022/09/07 13:05:37;;;;;;;15.82;4.93;;;;;;;;;;5079007;28;20119;-91
2022/09/07 13:08:16;;;;;;;12.57;5.15;;;;;;;;;;5070521;28;20086;-91
2022/09/07 13:10:43;;;;;;;12.48;4.72;;;;;;;;;;5091169;28;20031;-91
2022/09/07 13:13:15;;;;;;;11.20;4.57;;;;;;;;;;5086607;28;20027;-91
2022/09/07 13:15:49;;;;;;;12.30;5.18;;;;;;;;;;5101291;28;20122;-91
2022/09/07 13:18:30;;;;;;;10.27;4.90;;;;;;;;;;5087369;28;20019;-90
2022/09/07 13:21:10;;;;;;;7.35;4.60;;;;;;;;;;5099776;28;20020;-91
2022/09/07 13:23:39;;;;;;;10.05;5.38;;;;;;;;;;5112101;28;20023;-91
2022/09/07 13:26:10;;;;;;;17.15;5.40;;;;;;;;;;5097895;28;20051;-91
2022/09/07 13:28:38;;;;;;;13.60;5.30;;;;;;;;;;5088522;28;20486;-91
2022/09/07 13:31:13;;;;;;;13.80;5.28;;;;;;;;;;5096494;28;20026;-91
2022/09/07 13:33:58;;;;;;;14.48;4.97;;;;;;;;;;5097045;28;20377;-91
2022/09/07 13:36:36;;;;;;;15.50;5.70;;;;;;;;;;5096838;28;20039;-92
2022/09/07 13:39:07;;;;;;;10.80;4.88;;;;;;;;;;5098243;28;20019;-92
2022/09/07 13:41:33;;;;;;;;;;;;;;;;;;5091640;28;20110;-91
2022/09/07 13:44:02;;;;;;;12.77;5.18;;;;;;;;;;5096167;28;19944;-91
2022/09/07 13:46:47;;;;;;;10.90;4.85;;;;;;;;;;5096701;28;20071;-91
2022/09/07 13:49:28;;;;;;;5.65;3.90;;;;;;;;;;5085238;28;20047;-91
2022/09/07 13:52:21;;;;;;;12.10;5.55;;;;;;;;;;5102517;28;20047;-91
2022/09/07 13:55:01;;;;;;;8.88;4.72;;;;;;;;;;5076070;28;20545;-91
2022/09/07 13:57:42;;;;;;;9.95;4.68;;;;;;;;;;5092825;28;20110;-91
2022/09/07 14:00:18;;;;;;;10.93;4.90;;;;;;;;;;5089480;28;20023;-91
2022/09/07 14:02:49;;;;;;;12.60;5.07;;;;;;;;;;5086285;28;20028;-92
2022/09/07 14:05:19;;;;;;;16.52;5.20;;;;;;;;;;5094300;28;20023;-92
2022/09/07 14:07:49;;;;;;;13.90;4.70;;;;;;;;;;5092257;28;20059;-91
2022/09/07 14:10:19;;;;;;;10.02;4.50;;;;;;;;;;5096540;28;20019;-91
2022/09/07 14:12:49;;;;;;;12.45;5.95;;;;;;;;;;5095408;28;20420;-91
2022/09/07 14:15:22;;;;;;;15.10;5.20;;;;;;;;;;5083265;28;20389;-91
2022/09/07 14:17:52;;;;;;;11.48;5.07;;;;;;;;;;5081555;28;20363;-91
2022/09/07 14:20:19;;;;;;;10.52;4.90;;;;;;;;;;5096147;28;20492;-91
2022/09/07 14:22:45;;;;;;;14.73;5.32;;;;;;;;;;5100453;28;20558;-91
2022/09/07 14:25:17;;;;;;;9.90;4.95;;;;;;;;;;5096015;28;20031;-91
2022/09/07 14:27:48;;;;;;;14.77;5.68;;;;;;;;;;5086124;28;20032;-92
2022/09/07 14:30:14;;;;;;;15.88;5.35;;;;;;;;;;5076974;28;20024;-91
2022/09/07 14:32:40;;;;;;;12.43;5.35;;;;;;;;;;5079683;28;20173;-91
2022/09/07 14:35:17;;;;;;;11.40;5.03;;;;;;;;;;5090160;28;20023;-91
2022/09/07 14:37:44;;;;;;;9.60;4.38;;;;;;;;;;5087427;28;20046;-91
2022/09/07 14:40:18;;;;;;;11.90;5.05;;;;;;;;;;5104738;28;20020;-92
2022/09/07 14:42:51;;;;;;;14.93;5.47;;;;;;;;;;5096783;28;20062;-91
2022/09/07 14:45:25;;;;;;;17.00;5.65;;;;;;;;;;5082658;28;20135;-91
2022/09/07 14:47:55;;;;;;;12.80;5.15;;;;;;;;;;5085332;28;20023;-91
2022/09/07 14:50:22;;;;;;;12.10;4.63;;;;;;;;;;5082000;28;20111;-91
2022/09/07 14:52:53;;;;;;;15.95;5.35;;;;;;;;;;5110805;28;20042;-91
2022/09/07 14:55:26;;;;;;;7.28;4.75;;;;;;;;;;5089966;28;20377;-91